sensor_id;sensor_type;location;lat;lon;timestamp;pressure;altitude;pressure_sealevel;temperature;humidity
71964;BME280;59834;52.124;5.422;2023-08-30T00:02:09;100909.44;;;12.40;100.00
71964;BME280;59834;52.124;5.422;2023-08-30T00:04:35;100901.06;;;12.35;100.00
71964;BME280;59834;52.124;5.422;2023-08-30T00:07:03;100902.31;;;12.29;100.00
71964;BME280;59834;52.124;5.422;2023-08-30T00:09:29;100889.53;;;12.24;100.00
71964;BME280;59834;52.124;5.422;2023-08-30T00:11:56;100886.38;;;12.19;100.00
71964;BME280;59834;52.124;5.422;2023-08-30T00:14:22;100876.19;;;12.15;100.00
71964;BME280;59834;52.124;5.422;2023-08-30T00:16:49;100878.69;;;12.16;100.00
71964;BME280;59834;52.124;5.422;2023-08-30T00:19:15;100878.81;;;12.15;100.00
71964;BME280;59834;52.124;5.422;2023-08-30T00:21:42;100872.94;;;12.11;100.00
71964;BME280;59834;52.124;5.422;2023-08-30T00:24:09;100874.19;;;12.06;100.00
71964;BME280;59834;52.124;5.422;2023-08-30T00:26:36;100872.63;;;12.03;100.00
71964;BME280;59834;52.124;5.422;2023-08-30T00:29:02;100876.53;;;11.97;100.00
71964;BME280;59834;52.124;5.422;2023-08-30T00:31:29;100875.78;;;11.95;100.00
71964;BME280;59834;52.124;5.422;2023-08-30T00:33:55;100877.56;;;11.95;100.00
71964;BME280;59834;52.124;5.422;2023-08-30T00:36:22;100865.00;;;11.87;100.00
71964;BME280;59834;52.124;5.422;2023-08-30T00:38:49;100870.44;;;11.84;100.00
71964;BME280;59834;52.124;5.422;2023-08-30T00:41:19;100865.38;;;11.81;100.00
71964;BME280;59834;52.124;5.422;2023-08-30T00:43:46;100864.53;;;11.80;100.00
71964;BME280;59834;52.124;5.422;2023-08-30T00:46:13;100869.53;;;11.84;100.00
71964;BME280;59834;52.124;5.422;2023-08-30T00:48:40;100857.97;;;11.88;100.00
71964;BME280;59834;52.124;5.422;2023-08-30T00:51:07;100854.38;;;11.89;100.00
71964;BME280;59834;52.124;5.422;2023-08-30T00:53:34;100852.50;;;11.91;100.00
71964;BME280;59834;52.124;5.422;2023-08-30T00:56:03;100848.59;;;11.96;100.00
71964;BME280;59834;52.124;5.422;2023-08-30T00:58:29;100850.91;;;12.01;100.00
71964;BME280;59834;52.124;5.422;2023-08-30T01:00:56;100848.91;;;12.05;100.00
71964;BME280;59834;52.124;5.422;2023-08-30T01:03:24;100853.00;;;12.09;100.00
71964;BME280;59834;52.124;5.422;2023-08-30T01:05:50;100846.50;;;12.14;100.00
71964;BME280;59834;52.124;5.422;2023-08-30T01:08:17;100849.63;;;12.19;100.00
71964;BME280;59834;52.124;5.422;2023-08-30T01:13:30;100854.66;;;12.22;100.00
71964;BME280;59834;52.124;5.422;2023-08-30T01:15:58;100852.78;;;12.24;100.00
71964;BME280;59834;52.124;5.422;2023-08-30T01:18:29;100845.53;;;12.28;100.00
71964;BME280;59834;52.124;5.422;2023-08-30T01:20:59;100847.31;;;12.27;100.00
71964;BME280;59834;52.124;5.422;2023-08-30T01:26:14;100847.94;;;12.31;100.00
71964;BME280;59834;52.124;5.422;2023-08-30T01:28:46;100855.69;;;12.33;100.00
71964;BME280;59834;52.124;5.422;2023-08-30T01:31:15;100851.19;;;12.35;100.00
71964;BME280;59834;52.124;5.422;2023-08-30T01:33:42;100850.00;;;12.39;100.00
71964;BME280;59834;52.124;5.422;2023-08-30T01:36:09;100840.13;;;12.42;100.00
71964;BME280;59834;52.124;5.422;2023-08-30T01:38:37;100840.00;;;12.44;99.99
71964;BME280;59834;52.124;5.422;2023-08-30T01:41:04;100835.50;;;12.46;99.55
71964;BME280;59834;52.124;5.422;2023-08-30T01:43:31;100843.28;;;12.47;99.53
71964;BME280;59834;52.124;5.422;2023-08-30T01:46:00;100834.44;;;12.48;99.74
71964;BME280;59834;52.124;5.422;2023-08-30T01:48:29;100833.50;;;12.49;99.21
71964;BME280;59834;52.124;5.422;2023-08-30T01:50:58;100824.56;;;12.52;100.00
71964;BME280;59834;52.124;5.422;2023-08-30T01:53:27;100820.06;;;12.54;99.13
71964;BME280;59834;52.124;5.422;2023-08-30T01:55:54;100820.06;;;12.54;99.27
71964;BME280;59834;52.124;5.422;2023-08-30T01:58:21;100811.31;;;12.54;99.48
71964;BME280;59834;52.124;5.422;2023-08-30T02:00:48;100812.88;;;12.56;99.23
71964;BME280;59834;52.124;5.422;2023-08-30T02:03:14;100814.69;;;12.56;99.08
71964;BME280;59834;52.124;5.422;2023-08-30T02:06:08;100813.00;;;12.55;98.14
71964;BME280;59834;52.124;5.422;2023-08-30T02:08:41;100819.09;;;12.55;98.05
71964;BME280;59834;52.124;5.422;2023-08-30T02:11:17;100816.34;;;12.57;98.03
71964;BME280;59834;52.124;5.422;2023-08-30T02:13:45;100818.88;;;12.58;97.78
71964;BME280;59834;52.124;5.422;2023-08-30T02:16:13;100813.63;;;12.58;97.60
71964;BME280;59834;52.124;5.422;2023-08-30T02:18:41;100818.13;;;12.56;97.50
71964;BME280;59834;52.124;5.422;2023-08-30T02:21:08;100811.22;;;12.55;96.87
71964;BME280;59834;52.124;5.422;2023-08-30T02:23:35;100809.56;;;12.54;96.58
71964;BME280;59834;52.124;5.422;2023-08-30T02:26:01;100804.19;;;12.56;96.83
71964;BME280;59834;52.124;5.422;2023-08-30T02:28:29;100799.75;;;12.56;96.79
71964;BME280;59834;52.124;5.422;2023-08-30T02:30:56;100798.94;;;12.56;96.64
71964;BME280;59834;52.124;5.422;2023-08-30T02:33:22;100798.09;;;12.55;96.86
71964;BME280;59834;52.124;5.422;2023-08-30T02:35:49;100803.34;;;12.55;96.57
71964;BME280;59834;52.124;5.422;2023-08-30T02:38:15;100799.75;;;12.56;96.71
71964;BME280;59834;52.124;5.422;2023-08-30T02:40:42;100795.47;;;12.55;96.56
71964;BME280;59834;52.124;5.422;2023-08-30T02:43:09;100788.44;;;12.56;96.11
71964;BME280;59834;52.124;5.422;2023-08-30T02:45:35;100796.19;;;12.57;95.91
71964;BME280;59834;52.124;5.422;2023-08-30T02:48:02;100783.19;;;12.56;96.15
71964;BME280;59834;52.124;5.422;2023-08-30T02:50:28;100789.25;;;12.56;96.21
71964;BME280;59834;52.124;5.422;2023-08-30T02:52:55;100788.44;;;12.56;95.67
71964;BME280;59834;52.124;5.422;2023-08-30T02:55:22;100782.34;;;12.55;95.48
71964;BME280;59834;52.124;5.422;2023-08-30T02:57:48;100785.69;;;12.57;95.32
71964;BME280;59834;52.124;5.422;2023-08-30T03:00:15;100780.44;;;12.57;94.68
71964;BME280;59834;52.124;5.422;2023-08-30T03:02:42;100769.91;;;12.57;95.13
71964;BME280;59834;52.124;5.422;2023-08-30T03:05:08;100760.50;;;12.55;94.75
71964;BME280;59834;52.124;5.422;2023-08-30T03:07:35;100761.56;;;12.52;94.67
71964;BME280;59834;52.124;5.422;2023-08-30T03:10:01;100756.41;;;12.50;94.82
71964;BME280;59834;52.124;5.422;2023-08-30T03:12:29;100748.88;;;12.46;94.47
71964;BME280;59834;52.124;5.422;2023-08-30T03:14:56;100752.69;;;12.42;94.82
71964;BME280;59834;52.124;5.422;2023-08-30T03:17:22;100750.28;;;12.39;94.94
71964;BME280;59834;52.124;5.422;2023-08-30T03:19:53;100755.75;;;12.36;94.92
71964;BME280;59834;52.124;5.422;2023-08-30T03:22:20;100753.47;;;12.31;94.92
71964;BME280;59834;52.124;5.422;2023-08-30T03:24:47;100740.66;;;12.26;95.18
71964;BME280;59834;52.124;5.422;2023-08-30T03:27:13;100738.47;;;12.20;95.25
71964;BME280;59834;52.124;5.422;2023-08-30T03:29:40;100739.75;;;12.15;95.11
71964;BME280;59834;52.124;5.422;2023-08-30T03:32:06;100737.56;;;12.09;95.41
71964;BME280;59834;52.124;5.422;2023-08-30T03:34:33;100737.78;;;12.06;95.96
71964;BME280;59834;52.124;5.422;2023-08-30T03:36:59;100729.41;;;12.00;95.61
71964;BME280;59834;52.124;5.422;2023-08-30T03:39:26;100728.69;;;11.98;95.41
71964;BME280;59834;52.124;5.422;2023-08-30T03:41:52;100727.22;;;11.94;96.09
71964;BME280;59834;52.124;5.422;2023-08-30T03:44:19;100719.56;;;11.91;95.54
71964;BME280;59834;52.124;5.422;2023-08-30T03:46:45;100718.75;;;11.91;95.37
71964;BME280;59834;52.124;5.422;2023-08-30T03:49:12;100710.25;;;11.87;95.64
71964;BME280;59834;52.124;5.422;2023-08-30T03:51:38;100712.19;;;11.84;95.87
71964;BME280;59834;52.124;5.422;2023-08-30T03:54:05;100708.13;;;11.79;95.80
71964;BME280;59834;52.124;5.422;2023-08-30T03:56:31;100705.72;;;11.76;96.20
71964;BME280;59834;52.124;5.422;2023-08-30T03:58:58;100708.66;;;11.72;96.23
71964;BME280;59834;52.124;5.422;2023-08-30T04:01:24;100704.47;;;11.69;96.37
71964;BME280;59834;52.124;5.422;2023-08-30T04:03:51;100701.13;;;11.67;96.89
71964;BME280;59834;52.124;5.422;2023-08-30T04:06:18;100696.94;;;11.65;96.75
71964;BME280;59834;52.124;5.422;2023-08-30T04:08:45;100689.16;;;11.63;97.23
71964;BME280;59834;52.124;5.422;2023-08-30T04:11:11;100696.41;;;11.60;97.46
71964;BME280;59834;52.124;5.422;2023-08-30T04:13:38;100688.75;;;11.56;97.53
71964;BME280;59834;52.124;5.422;2023-08-30T04:16:04;100683.00;;;11.51;98.30
71964;BME280;59834;52.124;5.422;2023-08-30T04:18:31;100686.69;;;11.49;98.22
71964;BME280;59834;52.124;5.422;2023-08-30T04:20:58;100694.75;;;11.46;98.35
71964;BME280;59834;52.124;5.422;2023-08-30T04:23:25;100688.81;;;11.44;98.46
71964;BME280;59834;52.124;5.422;2023-08-30T04:25:52;100692.56;;;11.40;98.82
71964;BME280;59834;52.124;5.422;2023-08-30T04:28:18;100698.00;;;11.37;98.98
71964;BME280;59834;52.124;5.422;2023-08-30T04:30:45;100692.03;;;11.35;99.34
71964;BME280;59834;52.124;5.422;2023-08-30T04:33:12;100691.31;;;11.32;99.42
71964;BME280;59834;52.124;5.422;2023-08-30T04:35:38;100694.13;;;11.29;99.62
71964;BME280;59834;52.124;5.422;2023-08-30T04:38:05;100688.19;;;11.27;99.27
71964;BME280;59834;52.124;5.422;2023-08-30T04:40:32;100686.47;;;11.26;99.65
71964;BME280;59834;52.124;5.422;2023-08-30T04:42:59;100684.81;;;11.25;99.15
71964;BME280;59834;52.124;5.422;2023-08-30T04:45:26;100682.31;;;11.24;99.56
71964;BME280;59834;52.124;5.422;2023-08-30T04:47:52;100691.97;;;11.23;99.16
71964;BME280;59834;52.124;5.422;2023-08-30T04:50:19;100678.94;;;11.22;99.37
71964;BME280;59834;52.124;5.422;2023-08-30T04:52:46;100674.66;;;11.21;99.61
71964;BME280;59834;52.124;5.422;2023-08-30T04:55:12;100668.78;;;11.17;99.46
71964;BME280;59834;52.124;5.422;2023-08-30T04:57:39;100667.09;;;11.16;99.19
71964;BME280;59834;52.124;5.422;2023-08-30T05:00:06;100677.69;;;11.15;99.34
71964;BME280;59834;52.124;5.422;2023-08-30T05:02:33;100677.56;;;11.16;99.67
71964;BME280;59834;52.124;5.422;2023-08-30T05:05:00;100669.63;;;11.18;98.99
71964;BME280;59834;52.124;5.422;2023-08-30T05:07:27;100668.69;;;11.19;99.89
71964;BME280;59834;52.124;5.422;2023-08-30T05:09:54;100669.22;;;11.24;99.75
71964;BME280;59834;52.124;5.422;2023-08-30T05:12:20;100662.19;;;11.24;98.66
71964;BME280;59834;52.124;5.422;2023-08-30T05:14:46;100656.75;;;11.27;98.47
71964;BME280;59834;52.124;5.422;2023-08-30T05:17:13;100649.81;;;11.26;98.47
71964;BME280;59834;52.124;5.422;2023-08-30T05:19:40;100644.47;;;11.28;98.29
71964;BME280;59834;52.124;5.422;2023-08-30T05:22:06;100641.53;;;11.32;97.93
71964;BME280;59834;52.124;5.422;2023-08-30T05:24:33;100640.47;;;11.35;98.02
71964;BME280;59834;52.124;5.422;2023-08-30T05:27:00;100639.09;;;11.42;97.97
71964;BME280;59834;52.124;5.422;2023-08-30T05:29:26;100643.91;;;11.48;97.90
71964;BME280;59834;52.124;5.422;2023-08-30T05:31:53;100645.16;;;11.55;98.17
71964;BME280;59834;52.124;5.422;2023-08-30T05:34:44;100638.09;;;11.69;97.17
71964;BME280;59834;52.124;5.422;2023-08-30T05:37:19;100653.06;;;11.79;96.25
71964;BME280;59834;52.124;5.422;2023-08-30T05:39:45;100641.28;;;11.98;97.14
71964;BME280;59834;52.124;5.422;2023-08-30T05:42:12;100642.50;;;12.29;95.41
71964;BME280;59834;52.124;5.422;2023-08-30T05:44:39;100641.78;;;12.73;94.11
71964;BME280;59834;52.124;5.422;2023-08-30T05:47:05;100643.41;;;13.21;91.95
71964;BME280;59834;52.124;5.422;2023-08-30T05:49:36;100643.31;;;13.56;88.85
71964;BME280;59834;52.124;5.422;2023-08-30T05:52:03;100643.91;;;13.37;88.21
71964;BME280;59834;52.124;5.422;2023-08-30T05:54:30;100644.72;;;12.93;89.85
71964;BME280;59834;52.124;5.422;2023-08-30T05:56:57;100641.78;;;12.62;91.29
71964;BME280;59834;52.124;5.422;2023-08-30T05:59:24;100653.63;;;12.44;92.47
71964;BME280;59834;52.124;5.422;2023-08-30T06:02:05;100659.06;;;12.30;93.70
71964;BME280;59834;52.124;5.422;2023-08-30T06:04:31;100658.59;;;12.24;94.40
71964;BME280;59834;52.124;5.422;2023-08-30T06:06:58;100657.97;;;12.21;95.06
71964;BME280;59834;52.124;5.422;2023-08-30T06:09:28;100653.34;;;12.24;94.96
71964;BME280;59834;52.124;5.422;2023-08-30T06:11:55;100653.97;;;12.28;95.45
71964;BME280;59834;52.124;5.422;2023-08-30T06:14:21;100657.19;;;12.32;95.69
71964;BME280;59834;52.124;5.422;2023-08-30T06:16:48;100650.25;;;12.31;95.57
71964;BME280;59834;52.124;5.422;2023-08-30T06:19:15;100641.44;;;12.32;95.97
71964;BME280;59834;52.124;5.422;2023-08-30T06:21:41;100638.81;;;12.32;95.74
71964;BME280;59834;52.124;5.422;2023-08-30T06:24:08;100632.84;;;12.30;95.97
71964;BME280;59834;52.124;5.422;2023-08-30T06:26:35;100623.06;;;12.32;96.30
71964;BME280;59834;52.124;5.422;2023-08-30T06:29:01;100618.88;;;12.29;96.44
71964;BME280;59834;52.124;5.422;2023-08-30T06:31:31;100609.22;;;12.30;97.22
71964;BME280;59834;52.124;5.422;2023-08-30T06:33:59;100603.97;;;12.30;97.61
71964;BME280;59834;52.124;5.422;2023-08-30T06:36:26;100610.19;;;12.29;97.78
71964;BME280;59834;52.124;5.422;2023-08-30T06:38:52;100623.28;;;12.29;98.51
71964;BME280;59834;52.124;5.422;2023-08-30T06:41:19;100628.91;;;12.24;99.92
71964;BME280;59834;52.124;5.422;2023-08-30T06:43:46;100624.81;;;12.20;100.00
71964;BME280;59834;52.124;5.422;2023-08-30T06:46:13;100630.41;;;12.15;100.00
71964;BME280;59834;52.124;5.422;2023-08-30T06:48:40;100638.63;;;12.11;100.00
71964;BME280;59834;52.124;5.422;2023-08-30T06:51:07;100628.44;;;12.06;100.00
71964;BME280;59834;52.124;5.422;2023-08-30T06:53:33;100625.09;;;12.04;100.00
71964;BME280;59834;52.124;5.422;2023-08-30T06:56:00;100624.84;;;12.07;100.00
71964;BME280;59834;52.124;5.422;2023-08-30T06:58:27;100620.56;;;12.06;100.00
71964;BME280;59834;52.124;5.422;2023-08-30T07:00:57;100618.78;;;12.07;100.00
71964;BME280;59834;52.124;5.422;2023-08-30T07:03:24;100617.00;;;12.07;100.00
71964;BME280;59834;52.124;5.422;2023-08-30T07:05:51;100602.94;;;12.08;100.00
71964;BME280;59834;52.124;5.422;2023-08-30T07:08:18;100600.09;;;12.11;100.00
71964;BME280;59834;52.124;5.422;2023-08-30T07:10:44;100608.78;;;12.12;100.00
71964;BME280;59834;52.124;5.422;2023-08-30T07:13:11;100603.78;;;12.09;100.00
71964;BME280;59834;52.124;5.422;2023-08-30T07:15:41;100605.56;;;12.08;100.00
71964;BME280;59834;52.124;5.422;2023-08-30T07:18:09;100591.63;;;12.08;100.00
71964;BME280;59834;52.124;5.422;2023-08-30T07:20:38;100598.41;;;12.10;100.00
71964;BME280;59834;52.124;5.422;2023-08-30T07:23:05;100596.50;;;12.12;100.00
71964;BME280;59834;52.124;5.422;2023-08-30T07:25:37;100591.03;;;12.15;100.00
71964;BME280;59834;52.124;5.422;2023-08-30T07:28:04;100592.69;;;12.16;100.00
71964;BME280;59834;52.124;5.422;2023-08-30T07:30:31;100591.53;;;12.20;100.00
71964;BME280;59834;52.124;5.422;2023-08-30T07:32:58;100590.38;;;12.24;100.00
71964;BME280;59834;52.124;5.422;2023-08-30T07:35:24;100582.00;;;12.31;100.00
71964;BME280;59834;52.124;5.422;2023-08-30T07:37:51;100585.28;;;12.34;100.00
71964;BME280;59834;52.124;5.422;2023-08-30T07:40:17;100580.41;;;12.41;100.00
71964;BME280;59834;52.124;5.422;2023-08-30T07:42:44;100574.78;;;12.45;100.00
71964;BME280;59834;52.124;5.422;2023-08-30T07:45:12;100567.53;;;12.49;100.00
71964;BME280;59834;52.124;5.422;2023-08-30T07:47:39;100569.19;;;12.50;100.00
71964;BME280;59834;52.124;5.422;2023-08-30T07:50:07;100571.72;;;12.52;100.00
71964;BME280;59834;52.124;5.422;2023-08-30T07:52:33;100561.81;;;12.55;100.00
71964;BME280;59834;52.124;5.422;2023-08-30T07:55:11;100561.59;;;12.58;100.00
71964;BME280;59834;52.124;5.422;2023-08-30T07:57:37;100560.63;;;12.59;100.00
71964;BME280;59834;52.124;5.422;2023-08-30T08:00:05;100553.34;;;12.63;100.00
71964;BME280;59834;52.124;5.422;2023-08-30T08:02:32;100551.31;;;12.66;100.00
71964;BME280;59834;52.124;5.422;2023-08-30T08:04:58;100553.94;;;12.66;100.00
71964;BME280;59834;52.124;5.422;2023-08-30T08:07:25;100557.28;;;12.68;100.00
71964;BME280;59834;52.124;5.422;2023-08-30T08:10:19;100551.44;;;12.65;100.00
71964;BME280;59834;52.124;5.422;2023-08-30T08:12:46;100553.94;;;12.66;100.00
71964;BME280;59834;52.124;5.422;2023-08-30T08:15:13;100544.88;;;12.70;100.00
71964;BME280;59834;52.124;5.422;2023-08-30T08:17:40;100539.97;;;12.77;100.00
71964;BME280;59834;52.124;5.422;2023-08-30T08:20:07;100536.63;;;12.97;100.00
71964;BME280;59834;52.124;5.422;2023-08-30T08:22:33;100520.03;;;13.19;100.00
71964;BME280;59834;52.124;5.422;2023-08-30T08:25:00;100522.16;;;13.37;100.00
71964;BME280;59834;52.124;5.422;2023-08-30T08:27:27;100518.31;;;13.41;100.00
71964;BME280;59834;52.124;5.422;2023-08-30T08:29:53;100518.84;;;13.35;100.00
71964;BME280;59834;52.124;5.422;2023-08-30T08:32:20;100520.75;;;13.33;100.00
71964;BME280;59834;52.124;5.422;2023-08-30T08:34:47;100520.88;;;13.31;100.00
71964;BME280;59834;52.124;5.422;2023-08-30T08:37:13;100528.16;;;13.28;100.00
71964;BME280;59834;52.124;5.422;2023-08-30T08:39:41;100522.91;;;13.28;100.00
71964;BME280;59834;52.124;5.422;2023-08-30T08:42:09;100532.47;;;13.29;100.00
71964;BME280;59834;52.124;5.422;2023-08-30T08:44:36;100523.16;;;13.25;100.00
71964;BME280;59834;52.124;5.422;2023-08-30T08:47:05;100525.78;;;13.25;100.00
71964;BME280;59834;52.124;5.422;2023-08-30T08:49:31;100526.09;;;13.20;100.00
71964;BME280;59834;52.124;5.422;2023-08-30T08:51:58;100521.94;;;13.17;100.00
71964;BME280;59834;52.124;5.422;2023-08-30T08:54:25;100518.84;;;13.12;100.00
71964;BME280;59834;52.124;5.422;2023-08-30T08:56:53;100520.75;;;13.10;100.00
71964;BME280;59834;52.124;5.422;2023-08-30T08:59:21;100508.56;;;13.09;100.00
71964;BME280;59834;52.124;5.422;2023-08-30T09:01:48;100514.19;;;13.16;100.00
71964;BME280;59834;52.124;5.422;2023-08-30T09:04:14;100515.84;;;13.17;100.00
71964;BME280;59834;52.124;5.422;2023-08-30T09:06:41;100509.50;;;13.19;100.00
71964;BME280;59834;52.124;5.422;2023-08-30T09:09:35;100504.25;;;13.19;100.00
71964;BME280;59834;52.124;5.422;2023-08-30T09:12:01;100502.69;;;13.17;100.00
71964;BME280;59834;52.124;5.422;2023-08-30T09:14:29;100501.88;;;13.16;100.00
71964;BME280;59834;52.124;5.422;2023-08-30T09:16:57;100502.34;;;13.21;100.00
71964;BME280;59834;52.124;5.422;2023-08-30T09:19:24;100496.88;;;13.25;100.00
71964;BME280;59834;52.124;5.422;2023-08-30T09:21:56;100493.75;;;13.19;100.00
71964;BME280;59834;52.124;5.422;2023-08-30T09:24:23;100494.56;;;13.20;100.00
71964;BME280;59834;52.124;5.422;2023-08-30T09:26:53;100494.25;;;13.25;100.00
71964;BME280;59834;52.124;5.422;2023-08-30T09:29:21;100496.50;;;13.29;100.00
71964;BME280;59834;52.124;5.422;2023-08-30T09:31:53;100489.22;;;13.33;100.00
71964;BME280;59834;52.124;5.422;2023-08-30T09:34:26;100496.13;;;13.34;100.00
71964;BME280;59834;52.124;5.422;2023-08-30T09:36:53;100490.63;;;13.37;100.00
71964;BME280;59834;52.124;5.422;2023-08-30T09:39:21;100484.75;;;13.44;100.00
71964;BME280;59834;52.124;5.422;2023-08-30T09:41:48;100484.38;;;13.49;100.00
71964;BME280;59834;52.124;5.422;2023-08-30T09:44:20;100478.63;;;13.55;100.00
71964;BME280;59834;52.124;5.422;2023-08-30T09:46:52;100477.84;;;13.64;100.00
71964;BME280;59834;52.124;5.422;2023-08-30T09:49:24;100475.19;;;13.76;100.00
71964;BME280;59834;52.124;5.422;2023-08-30T09:51:53;100473.25;;;13.78;100.00
71964;BME280;59834;52.124;5.422;2023-08-30T09:54:21;100469.63;;;13.90;100.00
71964;BME280;59834;52.124;5.422;2023-08-30T09:57:05;100461.47;;;13.93;100.00
71964;BME280;59834;52.124;5.422;2023-08-30T09:59:33;100468.66;;;13.91;100.00
71964;BME280;59834;52.124;5.422;2023-08-30T10:02:00;100470.44;;;13.90;100.00
71964;BME280;59834;52.124;5.422;2023-08-30T10:04:31;100464.28;;;14.01;100.00
71964;BME280;59834;52.124;5.422;2023-08-30T10:07:00;100463.19;;;14.04;100.00
71964;BME280;59834;52.124;5.422;2023-08-30T10:09:29;100463.91;;;14.06;100.00
71964;BME280;59834;52.124;5.422;2023-08-30T10:11:57;100466.16;;;14.10;100.00
71964;BME280;59834;52.124;5.422;2023-08-30T10:14:24;100465.75;;;14.15;100.00
71964;BME280;59834;52.124;5.422;2023-08-30T10:16:51;100468.00;;;14.20;100.00
71964;BME280;59834;52.124;5.422;2023-08-30T10:19:26;100474.16;;;14.30;100.00
71964;BME280;59834;52.124;5.422;2023-08-30T10:22:03;100469.78;;;14.40;100.00
71964;BME280;59834;52.124;5.422;2023-08-30T10:24:56;100471.91;;;14.46;100.00
71964;BME280;59834;52.124;5.422;2023-08-30T10:27:39;100473.78;;;14.65;100.00
71964;BME280;59834;52.124;5.422;2023-08-30T10:30:08;100471.22;;;15.44;100.00
71964;BME280;59834;52.124;5.422;2023-08-30T10:32:43;100478.88;;;15.96;100.00
71964;BME280;59834;52.124;5.422;2023-08-30T10:35:15;100470.38;;;16.12;100.00
71964;BME280;59834;52.124;5.422;2023-08-30T10:37:57;100476.00;;;16.36;100.00
71964;BME280;59834;52.124;5.422;2023-08-30T10:40:25;100478.91;;;16.43;100.00
71964;BME280;59834;52.124;5.422;2023-08-30T10:43:04;100476.69;;;16.48;100.00
71964;BME280;59834;52.124;5.422;2023-08-30T10:45:31;100472.44;;;16.65;100.00
71964;BME280;59834;52.124;5.422;2023-08-30T10:47:59;100473.59;;;16.90;100.00
71964;BME280;59834;52.124;5.422;2023-08-30T10:50:33;100473.25;;;17.03;99.57
71964;BME280;59834;52.124;5.422;2023-08-30T10:53:00;100482.66;;;17.15;99.01
71964;BME280;59834;52.124;5.422;2023-08-30T10:55:27;100487.56;;;17.10;97.30
71964;BME280;59834;52.124;5.422;2023-08-30T10:58:02;100488.41;;;17.10;94.90
71964;BME280;59834;52.124;5.422;2023-08-30T11:00:54;100494.72;;;17.00;94.66
71964;BME280;59834;52.124;5.422;2023-08-30T11:03:21;100497.16;;;16.83;93.29
71964;BME280;59834;52.124;5.422;2023-08-30T11:05:48;100493.69;;;16.73;91.90
71964;BME280;59834;52.124;5.422;2023-08-30T11:08:16;100489.81;;;16.77;90.38
71964;BME280;59834;52.124;5.422;2023-08-30T11:10:42;100488.84;;;16.78;89.98
71964;BME280;59834;52.124;5.422;2023-08-30T11:13:09;100494.00;;;16.70;89.93
71964;BME280;59834;52.124;5.422;2023-08-30T11:15:36;100495.50;;;16.82;90.62
71964;BME280;59834;52.124;5.422;2023-08-30T11:18:03;100500.41;;;17.05;88.92
71964;BME280;59834;52.124;5.422;2023-08-30T11:20:30;100499.56;;;17.04;88.12
71964;BME280;59834;52.124;5.422;2023-08-30T11:22:56;100503.19;;;17.03;87.68
71964;BME280;59834;52.124;5.422;2023-08-30T11:25:24;100502.09;;;16.96;88.73
71964;BME280;59834;52.124;5.422;2023-08-30T11:28:01;100511.88;;;16.86;87.59
71964;BME280;59834;52.124;5.422;2023-08-30T11:30:28;100508.16;;;16.79;86.92
71964;BME280;59834;52.124;5.422;2023-08-30T11:32:57;100505.69;;;16.77;86.40
71964;BME280;59834;52.124;5.422;2023-08-30T11:35:24;100509.41;;;16.84;86.55
71964;BME280;59834;52.124;5.422;2023-08-30T11:37:51;100506.59;;;16.86;87.27
71964;BME280;59834;52.124;5.422;2023-08-30T11:40:17;100516.50;;;16.84;87.49
71964;BME280;59834;52.124;5.422;2023-08-30T11:42:44;100514.41;;;16.87;89.14
71964;BME280;59834;52.124;5.422;2023-08-30T11:45:14;100510.44;;;17.47;85.57
71964;BME280;59834;52.124;5.422;2023-08-30T11:47:41;100504.47;;;17.44;84.45
71964;BME280;59834;52.124;5.422;2023-08-30T11:50:10;100500.00;;;17.63;85.01
71964;BME280;59834;52.124;5.422;2023-08-30T11:52:39;100490.94;;;17.83;83.86
71964;BME280;59834;52.124;5.422;2023-08-30T11:55:06;100492.09;;;17.99;82.92
71964;BME280;59834;52.124;5.422;2023-08-30T11:57:33;100490.44;;;17.80;81.65
71964;BME280;59834;52.124;5.422;2023-08-30T12:00:10;100496.00;;;17.59;82.49
71964;BME280;59834;52.124;5.422;2023-08-30T12:02:39;100504.88;;;17.67;82.31
71964;BME280;59834;52.124;5.422;2023-08-30T12:05:10;100496.00;;;17.59;81.56
71964;BME280;59834;52.124;5.422;2023-08-30T12:07:38;100499.56;;;17.67;81.85
71964;BME280;59834;52.124;5.422;2023-08-30T12:10:10;100499.06;;;17.82;81.34
71964;BME280;59834;52.124;5.422;2023-08-30T12:12:37;100499.03;;;18.18;81.13
71964;BME280;59834;52.124;5.422;2023-08-30T12:15:08;100506.28;;;18.42;79.45
71964;BME280;59834;52.124;5.422;2023-08-30T12:17:35;100505.91;;;18.10;77.42
71964;BME280;59834;52.124;5.422;2023-08-30T12:20:03;100500.81;;;18.17;77.36
71964;BME280;59834;52.124;5.422;2023-08-30T12:22:39;100502.34;;;18.46;75.90
71964;BME280;59834;52.124;5.422;2023-08-30T12:25:16;100504.81;;;18.73;73.12
71964;BME280;59834;52.124;5.422;2023-08-30T12:27:44;100502.22;;;18.81;72.23
71964;BME280;59834;52.124;5.422;2023-08-30T12:30:11;100511.25;;;18.71;73.64
71964;BME280;59834;52.124;5.422;2023-08-30T12:32:38;100511.19;;;18.54;73.58
71964;BME280;59834;52.124;5.422;2023-08-30T12:35:05;100512.09;;;18.19;72.93
71964;BME280;59834;52.124;5.422;2023-08-30T12:37:31;100511.97;;;18.03;70.69
71964;BME280;59834;52.124;5.422;2023-08-30T12:39:58;100508.63;;;18.45;66.77
71964;BME280;59834;52.124;5.422;2023-08-30T12:42:25;100509.06;;;18.66;66.24
71964;BME280;59834;52.124;5.422;2023-08-30T12:44:52;100503.88;;;18.82;64.33
71964;BME280;59834;52.124;5.422;2023-08-30T12:47:19;100521.84;;;18.97;64.88
71964;BME280;59834;52.124;5.422;2023-08-30T12:49:47;100525.19;;;18.99;64.22
71964;BME280;59834;52.124;5.422;2023-08-30T12:52:39;100516.00;;;19.36;65.51
71964;BME280;59834;52.124;5.422;2023-08-30T12:55:06;100514.69;;;19.40;61.64
71964;BME280;59834;52.124;5.422;2023-08-30T12:57:33;100525.13;;;19.41;60.61